Weather at Pottageville Airport [CLOSED]

Public forecast

Using degrees Celsius for public forecast. Weather courtesy of forecast.io.

Closest aviation weather report (METAR) to Pottageville Airport

Closest report is Toronto Lester B. Pearson International Airport, 19.4 nm (35.9 km) S.

2024/05/22 19:00 (retrieved 1 hour ago)

CYYZ 221900Z 21019G29KT 15SM BKN048 BKN130 BKN240 29/19 A2970 RMK CU5AC1CI1 CB TOPS NE-SE MOV E SLP056 DENSITY ALT 2500FT

Closest aviation forecast (TAF) to Pottageville Airport

Closest forecast is Toronto Lester B. Pearson International Airport, 19.4 nm (35.9 km) S.

2024/05/22 18:12 Ammendment (retrieved 2 hours ago)

TAF AMD CYYZ 221809Z 2218/2324 22015G28KT P6SM SCT050 BKN100 TEMPO 2218/2220 VRB25G35KT 2SM TSRA BR BKN020 OVC040CB FM222000 22015G25KT P6SM SCT040 TEMPO 2220/2222 P6SM VCTS BKN040CB FM230000 24015G25KT P6SM SCT030 TEMPO 2300/2304 P6SM -SHRA VCTS BKN030CB FM230400 30015G30KT P6SM FEW030 BKN130 FM230800 30010KT P6SM SKC BECMG 2311/2313 25008KT FM231500 26010G20KT P6SM FEW040 BECMG 2322/2324 28010KT RMK NXT FCST BY 222100Z